createdAt,value
2022-09-20T00:00:43.355Z,996.25
2022-09-20T00:01:45.056Z,996.27
2022-09-20T00:02:46.702Z,996.24
2022-09-20T00:03:48.435Z,996.29
2022-09-20T00:04:50.210Z,996.27
2022-09-20T00:05:51.938Z,996.23
2022-09-20T00:06:53.677Z,996.27
2022-09-20T00:07:55.388Z,996.2
2022-09-20T00:08:57.111Z,996.24
2022-09-20T00:09:58.865Z,996.24
2022-09-20T00:11:00.583Z,996.24
2022-09-20T00:12:02.340Z,996.2
2022-09-20T00:13:04.047Z,996.25
2022-09-20T00:14:05.804Z,996.22
2022-09-20T00:15:07.527Z,996.24
2022-09-20T00:16:09.316Z,996.23
2022-09-20T00:17:11.241Z,996.23
2022-09-20T00:18:12.738Z,996.23
2022-09-20T00:19:14.459Z,996.19
2022-09-20T00:20:16.217Z,996.2
2022-09-20T00:21:17.924Z,996.16
2022-09-20T00:22:19.685Z,996.19
2022-09-20T00:23:21.390Z,996.17
2022-09-20T00:24:23.125Z,996.17
2022-09-20T00:25:24.866Z,996.15
2022-09-20T00:26:26.601Z,996.17
2022-09-20T00:27:28.327Z,996.19
2022-09-20T00:28:30.100Z,996.11
2022-09-20T00:29:31.812Z,996.21
2022-09-20T00:30:33.578Z,996.17
2022-09-20T00:31:35.316Z,996.17
2022-09-20T00:32:37.014Z,996.19
2022-09-20T00:33:38.752Z,996.13
2022-09-20T00:34:40.480Z,996.16
2022-09-20T00:35:42.210Z,996.16
2022-09-20T00:36:43.936Z,996.16
2022-09-20T00:37:45.673Z,996.11
2022-09-20T00:38:47.414Z,996.12
2022-09-20T00:39:49.160Z,996.13
2022-09-20T00:40:50.914Z,996.1
2022-09-20T00:41:52.612Z,996.13
2022-09-20T00:42:54.355Z,996.16
2022-09-20T00:43:56.206Z,996.11
2022-09-20T00:44:57.817Z,996.06
2022-09-20T00:45:59.619Z,996.09
2022-09-20T00:47:01.283Z,996.06
2022-09-20T00:48:03.041Z,996.13
2022-09-20T00:49:05.003Z,996.09
2022-09-20T00:50:06.531Z,996.14
2022-09-20T00:51:08.230Z,996.17
2022-09-20T00:52:09.989Z,996.16
2022-09-20T00:53:11.695Z,996.15
2022-09-20T00:54:16.940Z,996.15
2022-09-20T00:55:15.155Z,996.17
2022-09-20T00:56:16.909Z,996.22
2022-09-20T00:57:18.635Z,996.19
2022-09-20T00:58:20.373Z,996.23
2022-09-20T00:59:22.103Z,996.17
2022-09-20T01:00:23.844Z,996.18
2022-09-20T01:01:25.616Z,996.22
2022-09-20T01:02:27.433Z,996.21
2022-09-20T01:03:29.031Z,996.22
2022-09-20T01:04:30.772Z,996.23
2022-09-20T01:05:32.505Z,996.22
2022-09-20T01:06:34.252Z,996.24
2022-09-20T01:07:36.009Z,996.22
2022-09-20T01:08:37.700Z,996.24
2022-09-20T01:09:39.472Z,996.24
2022-09-20T01:10:41.200Z,996.26
2022-09-20T01:11:42.909Z,996.25
2022-09-20T01:12:44.642Z,996.29
2022-09-20T01:13:46.393Z,996.3
2022-09-20T01:14:48.110Z,996.29
2022-09-20T01:15:49.841Z,996.25
2022-09-20T01:16:51.667Z,996.31
2022-09-20T01:17:53.326Z,996.31
2022-09-20T01:18:55.052Z,996.28
2022-09-20T01:19:56.792Z,996.28
2022-09-20T01:20:58.541Z,996.28
2022-09-20T01:22:00.301Z,996.24
2022-09-20T01:23:01.988Z,996.3
2022-09-20T01:24:03.729Z,996.29
2022-09-20T01:25:05.499Z,996.34
2022-09-20T01:26:07.191Z,996.33
2022-09-20T01:27:08.957Z,996.29
2022-09-20T01:28:10.679Z,996.29
2022-09-20T01:29:12.399Z,996.28
2022-09-20T01:30:14.171Z,996.27
2022-09-20T01:31:15.974Z,996.26
2022-09-20T01:32:17.605Z,996.27
2022-09-20T01:33:19.347Z,996.26
2022-09-20T01:34:21.077Z,996.26
2022-09-20T01:35:22.807Z,996.28
2022-09-20T01:36:24.584Z,996.29
2022-09-20T01:37:26.295Z,996.28
2022-09-20T01:38:28.012Z,996.28
2022-09-20T01:39:29.742Z,996.34
2022-09-20T01:40:31.831Z,996.33
2022-09-20T01:41:33.208Z,996.32
2022-09-20T01:42:34.975Z,996.36
2022-09-20T01:43:36.684Z,996.32
2022-09-20T01:44:38.438Z,996.31
2022-09-20T01:45:40.211Z,996.31
2022-09-20T01:46:41.879Z,996.37
2022-09-20T01:47:43.617Z,996.33
2022-09-20T01:48:45.341Z,996.37
2022-09-20T01:49:47.120Z,996.37
2022-09-20T01:50:48.831Z,996.4
2022-09-20T01:51:50.594Z,996.36
2022-09-20T01:52:52.319Z,996.36
2022-09-20T01:53:54.029Z,996.33
2022-09-20T01:54:55.792Z,996.34
2022-09-20T01:55:57.505Z,996.34
2022-09-20T01:56:59.238Z,996.34
2022-09-20T01:58:00.955Z,996.38
2022-09-20T01:59:22.549Z,996.36
2022-09-20T02:00:04.456Z,996.33
2022-09-20T02:01:06.244Z,996.35
2022-09-20T02:02:08.024Z,996.35
2022-09-20T02:03:09.652Z,996.35
2022-09-20T02:04:11.400Z,996.39
2022-09-20T02:05:13.112Z,996.41
2022-09-20T02:06:14.854Z,996.4
2022-09-20T02:07:16.593Z,996.42
2022-09-20T02:08:18.345Z,996.39
2022-09-20T02:09:20.061Z,996.33
2022-09-20T02:10:21.774Z,996.34
2022-09-20T02:11:23.514Z,996.33
2022-09-20T02:12:25.257Z,996.32
2022-09-20T02:13:27.007Z,996.27
2022-09-20T02:14:28.715Z,996.26
2022-09-20T02:15:30.485Z,996.25
2022-09-20T02:16:32.302Z,996.31
2022-09-20T02:17:33.962Z,996.31
2022-09-20T02:18:35.654Z,996.28
2022-09-20T02:19:37.386Z,996.28
2022-09-20T02:20:39.147Z,996.32
2022-09-20T02:21:40.870Z,996.25
2022-09-20T02:22:42.460Z,996.28
2022-09-20T02:23:44.202Z,996.25
2022-09-20T02:24:45.946Z,996.25
2022-09-20T02:25:47.638Z,996.26
2022-09-20T02:26:49.413Z,996.25
2022-09-20T02:27:51.110Z,996.21
2022-09-20T02:28:52.877Z,996.25
2022-09-20T02:29:54.572Z,996.2
2022-09-20T02:30:56.340Z,996.26
2022-09-20T02:31:58.185Z,996.25
2022-09-20T02:32:59.860Z,996.24
2022-09-20T02:34:01.546Z,996.29
2022-09-20T02:35:03.273Z,996.29
2022-09-20T02:36:05.000Z,996.3
2022-09-20T02:37:06.747Z,996.28
2022-09-20T02:38:08.459Z,996.26
2022-09-20T02:39:10.203Z,996.24
2022-09-20T02:40:12.099Z,996.24
2022-09-20T02:41:13.674Z,996.27
2022-09-20T02:42:15.415Z,996.28
2022-09-20T02:43:17.157Z,996.28
2022-09-20T02:44:18.875Z,996.28
2022-09-20T02:45:20.622Z,996.23
2022-09-20T02:46:22.412Z,996.31
2022-09-20T02:47:24.097Z,996.27
2022-09-20T02:48:25.809Z,996.33
2022-09-20T02:49:27.557Z,996.31
2022-09-20T02:50:29.282Z,996.34
2022-09-20T02:51:31.024Z,996.29
2022-09-20T02:52:32.757Z,996.32
2022-09-20T02:53:34.488Z,996.29
2022-09-20T02:54:36.219Z,996.35
2022-09-20T02:55:37.960Z,996.32
2022-09-20T02:56:39.721Z,996.42
2022-09-20T02:57:41.438Z,996.42
2022-09-20T02:58:43.184Z,996.42
2022-09-20T02:59:44.911Z,996.44
2022-09-20T03:00:46.722Z,996.43
2022-09-20T03:01:48.477Z,996.44
2022-09-20T03:02:50.147Z,996.39
2022-09-20T03:03:51.838Z,996.44
2022-09-20T03:04:53.588Z,996.36
2022-09-20T03:05:55.337Z,996.38
2022-09-20T03:06:57.058Z,996.42
2022-09-20T03:07:58.753Z,996.45
2022-09-20T03:09:00.528Z,996.41
2022-09-20T03:10:02.228Z,996.38
2022-09-20T03:11:03.962Z,996.39
2022-09-20T03:12:05.696Z,996.4
2022-09-20T03:13:07.438Z,996.44
2022-09-20T03:14:09.169Z,996.34
2022-09-20T03:15:10.908Z,996.44
2022-09-20T03:16:12.711Z,996.41
2022-09-20T03:17:14.374Z,996.42
2022-09-20T03:18:16.105Z,996.43
2022-09-20T03:19:17.835Z,996.44
2022-09-20T03:20:19.568Z,996.4
2022-09-20T03:21:21.324Z,996.37
2022-09-20T03:22:23.072Z,996.34
2022-09-20T03:23:24.804Z,996.39
2022-09-20T03:24:26.515Z,996.37
2022-09-20T03:25:28.244Z,996.37
2022-09-20T03:26:30.010Z,996.38
2022-09-20T03:27:31.729Z,996.41
2022-09-20T03:28:33.449Z,996.43
2022-09-20T03:29:35.171Z,996.46
2022-09-20T03:30:36.923Z,996.47
2022-09-20T03:31:38.768Z,996.46
2022-09-20T03:32:40.413Z,996.51
2022-09-20T03:33:42.162Z,996.5
2022-09-20T03:34:43.852Z,996.51
2022-09-20T03:35:45.615Z,996.51
2022-09-20T03:36:47.366Z,996.53
2022-09-20T03:37:49.095Z,996.58
2022-09-20T03:38:50.827Z,996.6
2022-09-20T03:39:52.565Z,996.57
2022-09-20T03:40:54.337Z,996.56
2022-09-20T03:41:55.993Z,996.55
2022-09-20T03:42:57.745Z,996.57
2022-09-20T03:43:59.483Z,996.49
2022-09-20T03:45:01.207Z,996.54
2022-09-20T03:46:03.060Z,996.54
2022-09-20T03:47:04.672Z,996.57
2022-09-20T03:48:06.445Z,996.55
2022-09-20T03:49:08.167Z,996.51
2022-09-20T03:50:09.888Z,996.54
2022-09-20T03:51:11.614Z,996.58
2022-09-20T03:52:13.339Z,996.5
2022-09-20T03:53:15.079Z,996.5
2022-09-20T03:54:16.809Z,996.55
2022-09-20T03:55:18.563Z,996.54
2022-09-20T03:56:20.519Z,996.53
2022-09-20T03:57:22.028Z,996.57
2022-09-20T03:58:23.779Z,996.59
2022-09-20T03:59:25.488Z,996.57
2022-09-20T04:00:27.225Z,996.58
2022-09-20T04:01:29.045Z,996.55
2022-09-20T04:02:30.771Z,996.54
2022-09-20T04:03:32.432Z,996.56
2022-09-20T04:04:34.189Z,996.53
2022-09-20T04:05:35.931Z,996.54
2022-09-20T04:06:37.655Z,996.58
2022-09-20T04:07:39.362Z,996.6
2022-09-20T04:08:41.120Z,996.56
2022-09-20T04:09:42.826Z,996.57
2022-09-20T04:10:44.601Z,996.58
2022-09-20T04:11:46.313Z,996.59
2022-09-20T04:12:48.033Z,996.53
2022-09-20T04:13:49.808Z,996.58
2022-09-20T04:14:51.512Z,996.59
2022-09-20T04:15:53.243Z,996.5
2022-09-20T04:16:55.026Z,996.64
2022-09-20T04:17:56.711Z,996.59
2022-09-20T04:18:58.446Z,996.63
2022-09-20T04:20:00.226Z,996.62
2022-09-20T04:21:01.918Z,996.56
2022-09-20T04:22:03.713Z,996.5
2022-09-20T04:23:05.423Z,996.58
2022-09-20T04:24:07.118Z,996.56
2022-09-20T04:25:08.847Z,996.59
2022-09-20T04:26:10.601Z,996.55
2022-09-20T04:27:12.320Z,996.5
2022-09-20T04:28:14.044Z,996.5
2022-09-20T04:29:15.791Z,996.57
2022-09-20T04:30:17.538Z,996.56
2022-09-20T04:31:20.863Z,996.63
2022-09-20T04:32:21.094Z,996.59
2022-09-20T04:33:22.726Z,996.64
2022-09-20T04:34:24.466Z,996.66
2022-09-20T04:35:26.228Z,996.66
2022-09-20T04:36:27.951Z,996.64
2022-09-20T04:37:29.678Z,996.57
2022-09-20T04:38:31.399Z,996.59
2022-09-20T04:39:33.131Z,996.64
2022-09-20T04:40:34.927Z,996.62
2022-09-20T04:41:36.608Z,996.68
2022-09-20T04:42:38.335Z,996.64
2022-09-20T04:43:40.081Z,996.59
2022-09-20T04:44:41.802Z,996.58
2022-09-20T04:45:43.606Z,996.59
2022-09-20T04:46:45.272Z,996.58
2022-09-20T04:47:47.012Z,996.61
2022-09-20T04:48:48.732Z,996.63
2022-09-20T04:49:50.483Z,996.61
2022-09-20T04:50:52.237Z,996.65
2022-09-20T04:51:53.968Z,996.66
2022-09-20T04:52:55.784Z,996.67
2022-09-20T04:53:57.410Z,996.72
2022-09-20T04:54:59.148Z,996.7
2022-09-20T04:56:00.928Z,996.69
2022-09-20T04:57:02.608Z,996.7
2022-09-20T04:58:04.347Z,996.71
2022-09-20T04:59:06.231Z,996.75
2022-09-20T05:00:07.857Z,996.77
2022-09-20T05:01:09.676Z,996.73
2022-09-20T05:02:11.382Z,996.75
2022-09-20T05:03:13.019Z,996.78
2022-09-20T05:04:14.751Z,996.83
2022-09-20T05:05:16.483Z,996.78
2022-09-20T05:06:18.240Z,996.81
2022-09-20T05:07:19.943Z,996.81
2022-09-20T05:08:21.721Z,996.75
2022-09-20T05:09:23.422Z,996.79
2022-09-20T05:10:25.163Z,996.8
2022-09-20T05:11:26.897Z,996.79
2022-09-20T05:12:28.632Z,996.77
2022-09-20T05:13:30.360Z,996.81
2022-09-20T05:15:33.857Z,996.79
2022-09-20T05:16:36.021Z,996.78
2022-09-20T05:17:37.329Z,996.81
2022-09-20T05:18:39.034Z,996.8
2022-09-20T05:19:40.792Z,996.79
2022-09-20T05:20:42.509Z,996.8
2022-09-20T05:21:44.263Z,996.84
2022-09-20T05:22:45.977Z,996.85
2022-09-20T05:23:47.702Z,996.83
2022-09-20T05:24:49.466Z,996.84
2022-09-20T05:25:51.198Z,996.87
2022-09-20T05:26:52.916Z,996.87
2022-09-20T05:27:54.635Z,996.84
2022-09-20T05:28:56.380Z,996.86
2022-09-20T05:29:59.542Z,996.86
2022-09-20T05:30:59.847Z,996.85
2022-09-20T05:32:01.728Z,996.79
2022-09-20T05:33:03.338Z,996.88
2022-09-20T05:34:05.074Z,996.88
2022-09-20T05:35:06.777Z,996.92
2022-09-20T05:36:08.515Z,996.92
2022-09-20T05:37:10.262Z,996.93
2022-09-20T05:38:11.989Z,996.98
2022-09-20T05:39:13.725Z,996.98
2022-09-20T05:40:15.551Z,996.96
2022-09-20T05:41:17.414Z,996.99
2022-09-20T05:42:18.921Z,996.98
2022-09-20T05:43:20.692Z,997
2022-09-20T05:44:22.408Z,997.01
2022-09-20T05:45:24.129Z,996.98
2022-09-20T05:46:25.861Z,996.93
2022-09-20T05:47:27.596Z,997.05
2022-09-20T05:48:29.364Z,997.1
2022-09-20T05:49:31.081Z,997.13
2022-09-20T05:50:32.805Z,997.15
2022-09-20T05:51:34.533Z,997.18
2022-09-20T05:52:36.269Z,997.19
2022-09-20T05:53:38.032Z,997.22
2022-09-20T05:54:39.737Z,997.17
2022-09-20T05:55:41.469Z,997.18
2022-09-20T05:56:43.214Z,997.19
2022-09-20T05:57:44.942Z,997.19
2022-09-20T05:58:46.675Z,997.23
2022-09-20T05:59:48.452Z,997.2
2022-09-20T06:00:50.157Z,997.21
2022-09-20T06:01:51.884Z,997.28
2022-09-20T06:02:53.817Z,997.27
2022-09-20T06:03:55.350Z,997.23
2022-09-20T06:04:57.076Z,997.22
2022-09-20T06:05:58.825Z,997.22
2022-09-20T06:07:00.557Z,997.29
2022-09-20T06:08:02.272Z,997.31
2022-09-20T06:09:04.040Z,997.32
2022-09-20T06:10:05.752Z,997.34
2022-09-20T06:11:07.477Z,997.33
2022-09-20T06:12:09.254Z,997.31
2022-09-20T06:13:10.951Z,997.35
2022-09-20T06:14:12.694Z,997.36
2022-09-20T06:15:14.426Z,997.35
2022-09-20T06:16:16.221Z,997.37
2022-09-20T06:17:17.914Z,997.29
2022-09-20T06:18:19.661Z,997.32
2022-09-20T06:19:21.379Z,997.35
2022-09-20T06:20:23.083Z,997.36
2022-09-20T06:21:24.830Z,997.32
2022-09-20T06:22:26.565Z,997.36
2022-09-20T06:23:28.304Z,997.34
2022-09-20T06:24:30.034Z,997.37
2022-09-20T06:25:31.788Z,997.34
2022-09-20T06:26:33.493Z,997.36
2022-09-20T06:27:35.232Z,997.35
2022-09-20T06:28:36.956Z,997.3
2022-09-20T06:29:38.727Z,997.32
2022-09-20T06:30:40.564Z,997.27
2022-09-20T06:31:42.194Z,997.29
2022-09-20T06:32:43.936Z,997.26
2022-09-20T06:33:45.680Z,997.28
2022-09-20T06:34:47.385Z,997.29
2022-09-20T06:35:49.109Z,997.24
2022-09-20T06:36:50.890Z,997.22
2022-09-20T06:37:52.604Z,997.21
2022-09-20T06:38:54.331Z,997.23
2022-09-20T06:39:56.196Z,997.28
2022-09-20T06:40:57.774Z,997.25
2022-09-20T06:41:59.513Z,997.26
2022-09-20T06:43:01.270Z,997.26
2022-09-20T06:44:02.972Z,997.24
2022-09-20T06:45:04.718Z,997.25
2022-09-20T06:46:06.492Z,997.21
2022-09-20T06:47:08.210Z,997.22
2022-09-20T06:48:09.924Z,997.25
2022-09-20T06:49:11.650Z,997.26
2022-09-20T06:50:13.394Z,997.26
2022-09-20T06:51:15.148Z,997.26
2022-09-20T06:52:16.874Z,997.3
2022-09-20T06:53:18.589Z,997.3
2022-09-20T06:54:20.317Z,997.23
2022-09-20T06:55:24.996Z,997.27
2022-09-20T06:56:23.792Z,997.31
2022-09-20T06:57:25.540Z,997.3
2022-09-20T06:58:27.260Z,997.29
2022-09-20T06:59:29.029Z,997.31
2022-09-20T07:00:30.765Z,997.31
2022-09-20T07:01:32.511Z,997.24
2022-09-20T07:02:34.213Z,997.29
2022-09-20T07:03:35.939Z,997.3
2022-09-20T07:04:38.686Z,997.32
2022-09-20T07:05:39.413Z,997.34
2022-09-20T07:06:41.163Z,997.38
2022-09-20T07:07:42.861Z,997.37
2022-09-20T07:08:44.643Z,997.39
2022-09-20T07:09:46.333Z,997.37
2022-09-20T07:10:48.070Z,997.43
2022-09-20T07:11:49.836Z,997.42
2022-09-20T07:12:51.552Z,997.44
2022-09-20T07:13:53.275Z,997.35
2022-09-20T07:14:55.008Z,997.35
2022-09-20T07:15:56.734Z,997.32
2022-09-20T07:16:58.471Z,997.29
2022-09-20T07:18:00.267Z,997.34
2022-09-20T07:19:01.957Z,997.38
2022-09-20T07:20:03.711Z,997.3
2022-09-20T07:21:05.425Z,997.35
2022-09-20T07:22:07.149Z,997.4
2022-09-20T07:23:08.919Z,997.4
2022-09-20T07:24:10.625Z,997.42
2022-09-20T07:25:12.360Z,997.4
2022-09-20T07:26:14.094Z,997.37
2022-09-20T07:27:15.829Z,997.45
2022-09-20T07:28:17.683Z,997.42
2022-09-20T07:29:19.308Z,997.46
2022-09-20T07:30:21.046Z,997.43
2022-09-20T07:31:22.866Z,997.44
2022-09-20T07:32:24.508Z,997.43
2022-09-20T07:33:26.232Z,997.39
2022-09-20T07:34:28.001Z,997.42
2022-09-20T07:35:29.701Z,997.45
2022-09-20T07:36:31.436Z,997.4
2022-09-20T07:37:37.008Z,997.44
2022-09-20T07:38:34.917Z,997.46
2022-09-20T07:39:36.644Z,997.47
2022-09-20T07:40:38.502Z,997.43
2022-09-20T07:41:40.201Z,997.48
2022-09-20T07:42:41.849Z,997.41
2022-09-20T07:43:43.569Z,997.45
2022-09-20T07:44:45.327Z,997.53
2022-09-20T07:45:47.118Z,997.51
2022-09-20T07:46:48.767Z,997.44
2022-09-20T07:47:50.519Z,997.48
2022-09-20T07:48:52.244Z,997.52
2022-09-20T07:49:53.986Z,997.51
2022-09-20T07:50:55.715Z,997.53
2022-09-20T07:51:57.448Z,997.54
2022-09-20T07:52:59.193Z,997.54
2022-09-20T07:54:00.927Z,997.47
2022-09-20T07:55:02.653Z,997.56
2022-09-20T07:56:04.385Z,997.58
2022-09-20T07:57:06.122Z,997.56
2022-09-20T07:58:07.933Z,997.6
2022-09-20T07:59:09.615Z,997.57
2022-09-20T08:00:11.356Z,997.61
2022-09-20T08:01:13.129Z,997.61
2022-09-20T08:02:14.848Z,997.59
2022-09-20T08:03:16.555Z,997.62
2022-09-20T08:04:18.357Z,997.57
2022-09-20T08:05:20.028Z,997.6
2022-09-20T08:06:21.768Z,997.61
2022-09-20T08:07:23.482Z,997.62
2022-09-20T08:08:25.201Z,997.6
2022-09-20T08:09:26.930Z,997.67
2022-09-20T08:10:28.663Z,997.6
2022-09-20T08:11:30.397Z,997.71
2022-09-20T08:14:05.782Z,997.66
2022-09-20T08:14:35.632Z,997.72
2022-09-20T08:15:37.340Z,997.72
2022-09-20T08:16:39.146Z,997.73
2022-09-20T08:17:40.815Z,997.67
2022-09-20T08:18:42.551Z,997.68
2022-09-20T08:19:44.300Z,997.63
2022-09-20T08:20:46.039Z,997.7
2022-09-20T08:21:47.788Z,997.7
2022-09-20T08:23:06.402Z,997.7
2022-09-20T08:23:51.226Z,997.67
2022-09-20T08:24:52.975Z,997.67
2022-09-20T08:25:54.720Z,997.67
2022-09-20T08:26:56.423Z,997.66
2022-09-20T08:27:58.168Z,997.68
2022-09-20T08:28:59.931Z,997.66
2022-09-20T08:30:01.644Z,997.65
2022-09-20T08:31:03.404Z,997.73
2022-09-20T08:32:05.155Z,997.66
2022-09-20T08:33:06.861Z,997.7
2022-09-20T08:34:08.604Z,997.65
2022-09-20T08:35:10.298Z,997.67
2022-09-20T08:36:12.077Z,997.65
2022-09-20T08:37:13.770Z,997.65
2022-09-20T08:40:19.073Z,997.67
2022-09-20T08:41:20.745Z,997.64
2022-09-20T08:42:22.443Z,997.67
2022-09-20T08:43:24.182Z,997.64
2022-09-20T08:44:25.908Z,997.71
2022-09-20T08:45:35.289Z,997.71
2022-09-20T08:46:29.497Z,997.7
2022-09-20T08:47:31.309Z,997.73
2022-09-20T08:48:32.859Z,997.7
2022-09-20T08:49:34.574Z,997.71
2022-09-20T08:50:36.326Z,997.68
2022-09-20T08:51:38.077Z,997.73
2022-09-20T08:52:39.783Z,997.75
2022-09-20T08:53:41.513Z,997.74
2022-09-20T08:54:43.245Z,997.71
2022-09-20T08:55:45.018Z,997.75
2022-09-20T08:56:46.772Z,997.73
2022-09-20T08:57:48.482Z,997.75
2022-09-20T08:58:50.226Z,997.69
2022-09-20T08:59:51.938Z,997.69
2022-09-20T09:00:53.707Z,997.73
2022-09-20T09:01:55.475Z,997.75
2022-09-20T09:02:57.146Z,997.68
2022-09-20T09:03:58.869Z,997.75
2022-09-20T09:05:00.615Z,997.78
2022-09-20T09:06:02.359Z,997.82
2022-09-20T09:07:04.102Z,997.83
2022-09-20T09:08:05.834Z,997.81
2022-09-20T09:09:07.557Z,997.86
2022-09-20T09:10:09.305Z,997.86
2022-09-20T09:11:11.015Z,997.9
2022-09-20T09:12:12.777Z,997.89
2022-09-20T09:13:14.508Z,997.9
2022-09-20T09:14:16.206Z,997.92
2022-09-20T09:15:17.947Z,997.88
2022-09-20T09:16:25.642Z,997.86
2022-09-20T09:17:27.242Z,997.83
2022-09-20T09:18:23.152Z,997.81
2022-09-20T09:19:24.899Z,997.81
2022-09-20T09:20:26.655Z,997.83
2022-09-20T09:21:28.353Z,997.77
2022-09-20T09:22:30.108Z,997.75
2022-09-20T09:23:31.875Z,997.71
2022-09-20T09:24:33.610Z,997.68
2022-09-20T09:25:35.333Z,997.67
2022-09-20T09:26:37.030Z,997.66
2022-09-20T09:27:38.808Z,997.72
2022-09-20T09:28:40.533Z,997.71
2022-09-20T09:29:42.242Z,997.71
2022-09-20T09:30:43.971Z,997.7
2022-09-20T09:31:45.840Z,997.67
2022-09-20T09:32:47.446Z,997.76
2022-09-20T09:33:49.179Z,997.72
2022-09-20T09:34:50.908Z,997.77
2022-09-20T09:35:52.652Z,997.78
2022-09-20T09:36:54.430Z,997.81
2022-09-20T09:37:56.111Z,997.78
2022-09-20T09:38:57.844Z,997.73
2022-09-20T09:39:59.687Z,997.79
2022-09-20T09:41:01.326Z,997.8
2022-09-20T09:42:03.055Z,997.8
2022-09-20T09:43:04.785Z,997.81
2022-09-20T09:44:06.545Z,997.76
2022-09-20T09:45:08.245Z,997.78
2022-09-20T09:46:10.008Z,997.79
2022-09-20T09:47:11.725Z,997.76
2022-09-20T09:48:13.478Z,997.81
2022-09-20T09:49:15.400Z,997.76
2022-09-20T09:50:16.950Z,997.7
2022-09-20T09:51:18.672Z,997.79
2022-09-20T09:52:20.402Z,997.74
2022-09-20T09:53:22.152Z,997.75
2022-09-20T09:54:23.863Z,997.78
2022-09-20T09:55:25.593Z,997.76
2022-09-20T09:56:27.358Z,997.66
2022-09-20T09:57:29.071Z,997.67
2022-09-20T09:58:30.793Z,997.69
2022-09-20T09:59:32.557Z,997.66
2022-09-20T10:00:34.287Z,997.68
2022-09-20T10:01:36.136Z,997.69
2022-09-20T10:02:37.841Z,997.67
2022-09-20T10:03:39.522Z,997.62
2022-09-20T10:04:41.224Z,997.65
2022-09-20T10:05:42.969Z,997.6
2022-09-20T10:06:47.405Z,997.63
2022-09-20T10:07:46.445Z,997.6
2022-09-20T10:08:48.141Z,997.63
2022-09-20T10:09:49.901Z,997.68
2022-09-20T10:10:51.622Z,997.67
2022-09-20T10:11:53.360Z,997.67
2022-09-20T10:12:55.086Z,997.69
2022-09-20T10:13:56.804Z,997.64
2022-09-20T10:14:58.556Z,997.56
2022-09-20T10:16:00.322Z,997.63
2022-09-20T10:17:02.020Z,997.64
2022-09-20T10:18:03.762Z,997.55
2022-09-20T10:19:05.595Z,997.62
2022-09-20T10:20:07.266Z,997.57
2022-09-20T10:21:08.987Z,997.6
2022-09-20T10:22:10.700Z,997.61
2022-09-20T10:23:45.236Z,997.58
2022-09-20T10:24:14.163Z,997.56
2022-09-20T10:25:15.881Z,997.57
2022-09-20T10:26:17.656Z,997.57
2022-09-20T10:27:19.365Z,997.54
2022-09-20T10:28:21.196Z,997.51
2022-09-20T10:29:22.839Z,997.52
2022-09-20T10:30:24.599Z,997.52
2022-09-20T10:31:26.406Z,997.54
2022-09-20T10:32:28.055Z,997.52
2022-09-20T10:33:29.795Z,997.55
2022-09-20T10:34:31.504Z,997.57
2022-09-20T10:35:33.266Z,997.54
2022-09-20T10:36:34.965Z,997.52
2022-09-20T10:37:36.707Z,997.52
2022-09-20T10:38:38.476Z,997.53
2022-09-20T10:39:40.181Z,997.51
2022-09-20T10:40:41.980Z,997.49
2022-09-20T10:41:43.637Z,997.43
2022-09-20T10:42:45.391Z,997.41
2022-09-20T10:43:47.136Z,997.47
2022-09-20T10:44:48.842Z,997.4
2022-09-20T10:46:20.500Z,997.47
2022-09-20T10:46:52.418Z,997.43
2022-09-20T10:47:54.061Z,997.43
2022-09-20T10:48:55.821Z,997.42
2022-09-20T10:49:57.522Z,997.44
2022-09-20T10:50:59.254Z,997.43
2022-09-20T10:52:01.033Z,997.42
2022-09-20T10:53:02.737Z,997.45
2022-09-20T10:54:04.456Z,997.45
2022-09-20T10:55:06.191Z,997.39
2022-09-20T10:56:07.958Z,997.4
2022-09-20T10:57:09.689Z,997.37
2022-09-20T10:58:11.386Z,997.39
2022-09-20T10:59:13.136Z,997.38
2022-09-20T11:00:14.897Z,997.42
2022-09-20T11:01:16.652Z,997.42
2022-09-20T11:02:18.413Z,997.39
2022-09-20T11:03:20.117Z,997.36
2022-09-20T11:04:21.833Z,997.42
2022-09-20T11:05:23.545Z,997.38
2022-09-20T11:06:25.280Z,997.44
2022-09-20T11:07:27.024Z,997.4
2022-09-20T11:08:28.731Z,997.44
2022-09-20T11:09:30.457Z,997.3
2022-09-20T11:10:32.176Z,997.38
2022-09-20T11:11:33.889Z,997.36
2022-09-20T11:12:35.632Z,997.39
2022-09-20T11:13:37.333Z,997.38
2022-09-20T11:14:39.070Z,997.42
2022-09-20T11:15:40.797Z,997.38
2022-09-20T11:16:42.616Z,997.45
2022-09-20T11:17:44.241Z,997.42
2022-09-20T11:18:45.969Z,997.46
2022-09-20T11:19:47.692Z,997.45
2022-09-20T11:20:49.413Z,997.44
2022-09-20T11:21:51.145Z,997.47
2022-09-20T11:22:52.883Z,997.49
2022-09-20T11:23:54.590Z,997.53
2022-09-20T11:24:56.353Z,997.5
2022-09-20T11:25:58.060Z,997.52
2022-09-20T11:26:59.788Z,997.5
2022-09-20T11:28:01.507Z,997.51
2022-09-20T11:29:03.227Z,997.53
2022-09-20T11:30:04.971Z,997.53
2022-09-20T11:31:06.702Z,997.52
2022-09-20T11:32:08.532Z,997.57
2022-09-20T11:33:10.146Z,997.63
2022-09-20T11:34:11.864Z,997.58
2022-09-20T11:35:13.595Z,997.64
2022-09-20T11:36:15.320Z,997.6
2022-09-20T11:37:17.064Z,997.68
2022-09-20T11:38:18.791Z,997.72
2022-09-20T11:39:20.500Z,997.77
2022-09-20T11:40:22.286Z,997.83
2022-09-20T11:41:23.942Z,997.85
2022-09-20T11:42:25.711Z,997.94
2022-09-20T11:43:27.386Z,997.95
2022-09-20T11:44:29.115Z,997.98
2022-09-20T11:45:30.887Z,997.98
2022-09-20T11:46:32.602Z,997.97
2022-09-20T11:47:52.868Z,997.98
2022-09-20T11:48:36.021Z,997.94
2022-09-20T11:49:37.737Z,997.99
2022-09-20T11:50:39.474Z,997.96
2022-09-20T11:51:41.187Z,998
2022-09-20T11:52:42.929Z,997.92
2022-09-20T11:53:44.648Z,997.88
2022-09-20T11:54:46.383Z,997.9
2022-09-20T11:55:48.141Z,997.9
2022-09-20T11:56:49.869Z,997.88
2022-09-20T11:57:51.587Z,997.85
2022-09-20T11:58:53.503Z,997.81
2022-09-20T11:59:55.059Z,997.83
2022-09-20T12:00:56.818Z,997.83
2022-09-20T12:01:58.603Z,997.76
2022-09-20T12:03:00.463Z,997.78
2022-09-20T12:04:30.761Z,997.82
2022-09-20T12:05:03.743Z,997.77
2022-09-20T12:06:05.499Z,997.75
2022-09-20T12:07:11.353Z,997.72
2022-09-20T12:08:08.946Z,997.71
2022-09-20T12:09:10.702Z,997.72
2022-09-20T12:10:12.426Z,997.65
2022-09-20T12:11:14.166Z,997.66
2022-09-20T12:12:15.896Z,997.69
2022-09-20T12:13:17.647Z,997.7
2022-09-20T12:14:19.341Z,997.74
2022-09-20T12:15:21.074Z,997.69
2022-09-20T12:16:22.918Z,997.7
2022-09-20T12:17:24.586Z,997.71
2022-09-20T12:18:26.275Z,997.65
2022-09-20T12:19:28.027Z,997.6
2022-09-20T12:20:29.755Z,997.69
2022-09-20T12:21:31.511Z,997.64
2022-09-20T12:22:33.227Z,997.62
2022-09-20T12:23:34.973Z,997.6
2022-09-20T12:24:36.704Z,997.61
2022-09-20T12:25:38.428Z,997.58
2022-09-20T12:26:40.168Z,997.61
2022-09-20T12:27:41.905Z,997.61
2022-09-20T12:28:43.688Z,997.61
2022-09-20T12:29:45.354Z,997.61
2022-09-20T12:30:47.127Z,997.6
2022-09-20T12:31:48.904Z,997.58
2022-09-20T12:32:50.599Z,997.57
2022-09-20T12:33:52.305Z,997.59
2022-09-20T12:34:54.131Z,997.59
2022-09-20T12:35:55.797Z,997.53
2022-09-20T12:36:57.496Z,997.54
2022-09-20T12:37:59.236Z,997.55
2022-09-20T12:39:00.988Z,997.57
2022-09-20T12:40:02.854Z,997.54
2022-09-20T12:41:04.436Z,997.59
2022-09-20T12:42:06.183Z,997.57
2022-09-20T12:43:07.907Z,997.56
2022-09-20T12:44:09.666Z,997.59
2022-09-20T12:45:11.371Z,997.57
2022-09-20T12:46:13.222Z,997.6
2022-09-20T12:47:14.839Z,997.55
2022-09-20T12:48:16.617Z,997.59
2022-09-20T12:49:18.316Z,997.59
2022-09-20T12:50:20.055Z,997.52
2022-09-20T12:51:21.780Z,997.53
2022-09-20T12:52:23.548Z,997.55
2022-09-20T12:53:25.281Z,997.55
2022-09-20T12:54:26.998Z,997.58
2022-09-20T12:55:28.753Z,997.54
2022-09-20T12:56:30.471Z,997.55